KSBY

Salisbury-Ocean City Wicomico Regional Airport

Salisbury, Maryland, USA
METAR KSBY 181406Z 24009KT 10SM SCT018 28/24 A2992 RMK AO2 T02780244
Observed Flight Rules
Aug-18 @ 14:06 UTC (47 minutes ago) Visual Flight Rules
Wind Visibility Clouds
240° at 9 knots 10 miles
  • Scattered at 1,800' AGL
Temperatures Readings
Current 28°C / 82°F
Dewpoint 24°C / 75°F
Humidity 79%
Altimeter 29.92" Hg
Pressure 1013 hPa
Elevation 19
METAR KSBY 181406Z 24009KT 10SM SCT018 28/24 A2992 RMK AO2 T02780244
Observed Flight Rules
Aug-18 @ 14:06 UTC
(47 minutes ago)
VFR
Wind Visibility
240° at 9 knots 10 miles
Clouds
  • Scattered at 1,800' AGL
Temperature Dewpoint
28°C / 82°F 24°C / 75°F
Humidity Altimeter Pressure
79% 29.92" Hg 1013 hPa